createdAt,value
2017-11-21T00:02:00.117Z,10.20
2017-11-21T00:04:27.599Z,10.20
2017-11-21T00:06:55.083Z,10.20
2017-11-21T00:09:23.328Z,10.20
2017-11-21T00:11:50.811Z,10.20
2017-11-21T00:14:19.144Z,10.20
2017-11-21T00:16:46.618Z,10.20
2017-11-21T00:19:14.102Z,10.30
2017-11-21T00:21:42.353Z,10.30
2017-11-21T00:24:09.834Z,10.30
2017-11-21T00:26:38.203Z,10.30
2017-11-21T00:29:05.857Z,10.20
2017-11-21T00:31:33.334Z,10.20
2017-11-21T00:34:01.579Z,10.30
2017-11-21T00:36:29.066Z,10.30
2017-11-21T00:38:57.314Z,10.30
2017-11-21T00:41:24.794Z,10.30
2017-11-21T00:43:53.032Z,10.30
2017-11-21T00:46:20.526Z,10.30
2017-11-21T00:48:48.756Z,10.30
2017-11-21T00:51:16.238Z,10.30
2017-11-21T00:53:43.713Z,10.30
2017-11-21T00:56:11.961Z,10.30
2017-11-21T00:58:39.463Z,10.30
2017-11-21T01:01:07.720Z,10.30
2017-11-21T01:03:35.985Z,10.30
2017-11-21T01:06:03.454Z,10.30
2017-11-21T01:08:31.708Z,10.40
2017-11-21T01:10:59.346Z,10.30
2017-11-21T01:13:26.822Z,10.40
2017-11-21T01:15:54.290Z,10.40
2017-11-21T01:18:21.855Z,10.30
2017-11-21T01:20:49.334Z,10.40
2017-11-21T01:23:17.580Z,10.40
2017-11-21T01:25:45.064Z,10.40
2017-11-21T01:28:13.297Z,10.40
2017-11-21T01:30:40.791Z,10.40
2017-11-21T01:33:09.049Z,10.40
2017-11-21T01:35:37.295Z,10.40
2017-11-21T01:38:04.783Z,10.40
2017-11-21T01:40:32.321Z,10.40
2017-11-21T01:42:59.805Z,10.50
2017-11-21T01:45:28.039Z,10.50
2017-11-21T01:47:55.525Z,10.40
2017-11-21T01:50:23.007Z,10.50
2017-11-21T01:52:51.260Z,10.60
2017-11-21T01:55:18.740Z,10.50
2017-11-21T01:57:46.993Z,10.60
2017-11-21T02:00:15.044Z,10.60
2017-11-21T02:02:42.539Z,10.60
2017-11-21T02:05:10.862Z,10.60
2017-11-21T02:07:38.363Z,10.50
2017-11-21T02:10:05.939Z,10.60
2017-11-21T02:12:35.025Z,10.60
2017-11-21T02:15:03.271Z,10.60
2017-11-21T02:17:30.878Z,10.60
2017-11-21T02:19:58.438Z,10.70
2017-11-21T02:22:25.944Z,10.70
2017-11-21T02:24:53.409Z,10.70
2017-11-21T02:27:20.890Z,10.70
2017-11-21T02:29:49.137Z,10.70
2017-11-21T02:32:16.628Z,10.70
2017-11-21T02:34:44.881Z,10.80
2017-11-21T02:37:12.367Z,10.80
2017-11-21T02:39:40.606Z,10.80
2017-11-21T02:42:08.112Z,10.70
2017-11-21T02:44:35.598Z,10.80
2017-11-21T02:47:03.085Z,10.80
2017-11-21T02:49:30.558Z,10.80
2017-11-21T02:51:58.832Z,10.80
2017-11-21T02:54:27.153Z,10.80
2017-11-21T02:56:54.712Z,10.80
2017-11-21T02:59:22.195Z,10.80
2017-11-21T03:01:49.738Z,10.80
2017-11-21T03:04:17.206Z,10.80
2017-11-21T03:06:44.708Z,10.80
2017-11-21T03:09:12.926Z,10.80
2017-11-21T03:11:40.521Z,10.80
2017-11-21T03:14:08.913Z,10.80
2017-11-21T03:16:37.158Z,10.80
2017-11-21T03:19:04.640Z,10.80
2017-11-21T03:21:43.827Z,10.80
2017-11-21T03:24:23.259Z,10.80
2017-11-21T03:26:50.730Z,10.80
2017-11-21T03:29:18.215Z,10.80
2017-11-21T03:31:45.700Z,10.80
2017-11-21T03:34:13.169Z,10.80
2017-11-21T03:36:40.657Z,10.80
2017-11-21T03:39:08.119Z,10.80
2017-11-21T03:41:35.598Z,10.80
2017-11-21T03:44:03.068Z,10.80
2017-11-21T03:46:31.313Z,10.80
2017-11-21T03:48:58.950Z,10.80
2017-11-21T03:51:26.405Z,10.80
2017-11-21T03:53:53.886Z,10.80
2017-11-21T03:56:21.357Z,10.80
2017-11-21T03:58:48.846Z,10.80
2017-11-21T04:01:16.319Z,10.80
2017-11-21T04:03:43.861Z,10.80
2017-11-21T04:06:12.148Z,10.80
2017-11-21T04:08:39.703Z,10.80
2017-11-21T04:11:07.172Z,10.80
2017-11-21T04:13:34.674Z,10.80
2017-11-21T04:16:02.235Z,10.80
2017-11-21T04:18:29.697Z,10.90
2017-11-21T04:20:57.951Z,10.90
2017-11-21T04:23:25.499Z,10.90
2017-11-21T04:25:52.975Z,10.90
2017-11-21T04:28:20.438Z,10.90
2017-11-21T04:30:49.456Z,10.90
2017-11-21T04:33:17.741Z,11.00
2017-11-21T04:35:46.008Z,11.00
2017-11-21T04:38:14.241Z,10.90
2017-11-21T04:40:41.785Z,10.90
2017-11-21T04:43:09.290Z,10.90
2017-11-21T04:45:37.544Z,10.90
2017-11-21T04:48:05.084Z,10.90
2017-11-21T04:50:32.559Z,11.00
2017-11-21T04:53:00.061Z,11.00
2017-11-21T04:55:28.288Z,11.00
2017-11-21T04:57:55.783Z,10.90
2017-11-21T05:00:24.026Z,11.00
2017-11-21T05:02:52.198Z,11.00
2017-11-21T05:05:19.685Z,11.00
2017-11-21T05:07:47.922Z,11.00
2017-11-21T05:10:15.474Z,11.00
2017-11-21T05:12:43.139Z,11.00
2017-11-21T05:15:10.602Z,11.00
2017-11-21T05:17:38.064Z,11.00
2017-11-21T05:20:05.549Z,11.00
2017-11-21T05:22:33.779Z,11.00
2017-11-21T05:25:01.267Z,10.90
2017-11-21T05:27:29.510Z,11.00
2017-11-21T05:29:56.979Z,10.90
2017-11-21T05:32:36.368Z,11.00
2017-11-21T05:35:03.855Z,11.00
2017-11-21T05:37:31.338Z,11.00
2017-11-21T05:39:58.841Z,11.10
2017-11-21T05:42:26.321Z,11.00
2017-11-21T05:44:53.818Z,11.10
2017-11-21T05:47:21.281Z,11.10
2017-11-21T05:49:49.541Z,11.00
2017-11-21T05:52:17.023Z,11.00
2017-11-21T05:54:44.535Z,11.00
2017-11-21T05:57:12.015Z,11.00
2017-11-21T05:59:39.498Z,11.00
2017-11-21T06:02:07.751Z,11.00
2017-11-21T06:04:35.250Z,10.90
2017-11-21T06:07:03.589Z,11.00
2017-11-21T06:09:31.841Z,11.00
2017-11-21T06:12:00.054Z,11.00
2017-11-21T06:14:28.293Z,11.00
2017-11-21T06:16:55.778Z,11.00
2017-11-21T06:19:23.253Z,11.00
2017-11-21T06:21:51.505Z,11.00
2017-11-21T06:24:18.974Z,11.00
2017-11-21T06:26:47.225Z,11.00
2017-11-21T06:29:16.203Z,11.00
2017-11-21T06:31:43.683Z,11.00
2017-11-21T06:34:11.148Z,11.00
2017-11-21T06:36:39.414Z,11.00
2017-11-21T06:39:06.877Z,11.00
2017-11-21T06:41:34.498Z,11.00
2017-11-21T06:44:01.986Z,11.00
2017-11-21T06:46:29.437Z,11.10
2017-11-21T06:48:56.936Z,11.00
2017-11-21T06:51:25.157Z,11.00
2017-11-21T06:53:52.631Z,11.00
2017-11-21T06:56:20.089Z,11.00
2017-11-21T06:58:47.562Z,11.00
2017-11-21T07:01:15.792Z,11.10
2017-11-21T07:03:43.281Z,11.00
2017-11-21T07:06:10.748Z,11.00
2017-11-21T07:08:38.991Z,10.90
2017-11-21T07:11:06.454Z,10.90
2017-11-21T07:13:33.947Z,10.90
2017-11-21T07:16:02.235Z,10.90
2017-11-21T07:18:30.498Z,10.90
2017-11-21T07:20:58.753Z,10.80
2017-11-21T07:23:26.334Z,10.80
2017-11-21T07:25:54.587Z,10.80
2017-11-21T07:28:22.045Z,10.80
2017-11-21T07:30:49.514Z,10.80
2017-11-21T07:33:17.743Z,10.80
2017-11-21T07:35:45.269Z,10.80
2017-11-21T07:38:13.499Z,10.90
2017-11-21T07:40:41.824Z,11.00
2017-11-21T07:43:09.376Z,10.90
2017-11-21T07:45:37.612Z,11.00
2017-11-21T07:48:06.594Z,10.90
2017-11-21T07:50:34.092Z,10.90
2017-11-21T07:53:02.316Z,10.90
2017-11-21T07:55:29.794Z,10.90
2017-11-21T07:57:57.452Z,10.90
2017-11-21T08:00:24.911Z,10.90
2017-11-21T08:02:52.391Z,11.00
2017-11-21T08:05:20.669Z,10.90
2017-11-21T08:07:48.914Z,10.90
2017-11-21T08:10:16.596Z,10.90
2017-11-21T08:12:44.083Z,11.00
2017-11-21T08:15:11.556Z,11.00
2017-11-21T08:17:39.113Z,11.00
2017-11-21T08:20:06.603Z,11.00
2017-11-21T08:22:34.070Z,11.00
2017-11-21T08:25:01.549Z,11.00
2017-11-21T08:27:29.013Z,11.00
2017-11-21T08:29:57.278Z,11.10
2017-11-21T08:32:25.613Z,11.10
2017-11-21T08:34:53.116Z,11.10
2017-11-21T08:37:21.406Z,11.10
2017-11-21T08:39:49.948Z,11.10
2017-11-21T08:42:17.713Z,11.10
2017-11-21T08:44:46.039Z,11.10
2017-11-21T08:47:13.510Z,11.00
2017-11-21T08:49:41.149Z,11.10
2017-11-21T08:52:08.638Z,11.10
2017-11-21T08:54:36.127Z,11.10
2017-11-21T08:57:04.380Z,11.20
2017-11-21T08:59:31.877Z,11.20
2017-11-21T09:02:00.464Z,11.20
2017-11-21T09:04:28.710Z,11.20
2017-11-21T09:06:56.195Z,11.20
2017-11-21T09:09:24.575Z,11.20
2017-11-21T09:11:52.821Z,11.30
2017-11-21T09:14:20.398Z,11.20
2017-11-21T09:16:47.948Z,11.20
2017-11-21T09:19:15.430Z,11.30
2017-11-21T09:21:43.694Z,11.20
2017-11-21T09:24:11.932Z,11.20
2017-11-21T09:26:39.610Z,11.20
2017-11-21T09:29:07.098Z,11.20
2017-11-21T09:31:35.478Z,11.20
2017-11-21T09:34:03.726Z,11.20
2017-11-21T09:36:31.210Z,11.20
2017-11-21T09:38:59.516Z,11.20
2017-11-21T09:41:26.992Z,11.20
2017-11-21T09:43:54.470Z,11.20
2017-11-21T09:46:22.137Z,11.20
2017-11-21T09:48:49.624Z,11.20
2017-11-21T09:51:17.873Z,11.30
2017-11-21T09:53:45.969Z,11.20
2017-11-21T09:56:14.301Z,11.20
2017-11-21T09:58:41.914Z,11.20
2017-11-21T10:01:10.194Z,11.20
2017-11-21T10:03:37.677Z,11.20
2017-11-21T10:06:05.175Z,11.10
2017-11-21T10:08:32.652Z,11.10
2017-11-21T10:11:00.961Z,11.10
2017-11-21T10:13:28.435Z,11.10
2017-11-21T10:15:55.911Z,11.10
2017-11-21T10:18:23.588Z,11.10
2017-11-21T10:20:51.176Z,11.10
2017-11-21T10:23:18.672Z,11.10
2017-11-21T10:25:46.138Z,11.10
2017-11-21T10:28:13.835Z,11.10
2017-11-21T10:30:42.229Z,11.20
2017-11-21T10:33:09.718Z,11.20
2017-11-21T10:35:37.236Z,11.20
2017-11-21T10:38:05.578Z,11.30
2017-11-21T10:40:33.062Z,11.20
2017-11-21T10:43:01.347Z,11.20
2017-11-21T10:45:29.602Z,11.30
2017-11-21T10:47:57.844Z,11.30
2017-11-21T10:50:25.346Z,11.20
2017-11-21T10:52:53.598Z,11.30
2017-11-21T10:55:21.352Z,11.20
2017-11-21T10:57:48.843Z,11.30
2017-11-21T11:00:17.155Z,11.20
2017-11-21T11:02:44.651Z,11.20
2017-11-21T11:05:12.170Z,11.20
2017-11-21T11:07:39.808Z,11.20
2017-11-21T11:10:08.547Z,11.20
2017-11-21T11:12:36.039Z,11.10
2017-11-21T11:15:04.283Z,11.20
2017-11-21T11:17:31.784Z,11.20
2017-11-21T11:20:00.053Z,11.20
2017-11-21T11:22:28.305Z,11.20
2017-11-21T11:24:55.810Z,11.20
2017-11-21T11:27:23.280Z,11.20
2017-11-21T11:29:50.768Z,11.20
2017-11-21T11:32:18.253Z,11.20
2017-11-21T11:34:46.519Z,11.20
2017-11-21T11:37:14.096Z,11.20
2017-11-21T11:39:42.368Z,11.20
2017-11-21T11:42:10.630Z,11.20
2017-11-21T11:44:38.093Z,11.10
2017-11-21T11:47:06.375Z,11.10
2017-11-21T11:49:35.677Z,11.10
2017-11-21T11:52:04.046Z,11.00
2017-11-21T11:54:31.562Z,11.00
2017-11-21T11:56:59.047Z,11.00
2017-11-21T11:59:26.542Z,11.00
2017-11-21T12:01:54.027Z,11.00
2017-11-21T12:04:21.507Z,11.00
2017-11-21T12:06:49.038Z,11.00
2017-11-21T12:09:16.511Z,11.00
2017-11-21T12:11:43.987Z,11.00
2017-11-21T12:14:11.466Z,11.00
2017-11-21T12:16:38.956Z,11.00
2017-11-21T12:19:06.443Z,11.00
2017-11-21T12:21:33.938Z,11.00
2017-11-21T12:24:03.870Z,11.00
2017-11-21T12:26:31.354Z,11.00
2017-11-21T12:28:58.866Z,11.00
2017-11-21T12:31:26.341Z,11.10
2017-11-21T12:33:54.699Z,11.00
2017-11-21T12:36:22.970Z,11.10
2017-11-21T12:38:50.439Z,11.00
2017-11-21T12:41:18.751Z,11.00
2017-11-21T12:43:46.235Z,11.00
2017-11-21T12:46:13.710Z,11.00
2017-11-21T12:48:41.206Z,11.00
2017-11-21T12:51:08.689Z,11.00
2017-11-21T12:53:37.009Z,11.00
2017-11-21T12:56:04.499Z,11.00
2017-11-21T12:58:31.979Z,11.00
2017-11-21T13:00:59.464Z,11.00
2017-11-21T13:03:26.908Z,11.00
2017-11-21T13:05:54.425Z,11.00
2017-11-21T13:08:21.904Z,11.00
2017-11-21T13:10:49.702Z,11.00
2017-11-21T13:13:17.673Z,11.00
2017-11-21T13:15:45.338Z,11.00
2017-11-21T13:18:12.835Z,11.00
2017-11-21T13:20:40.330Z,11.00
2017-11-21T13:23:08.010Z,11.00
2017-11-21T13:25:35.479Z,11.00
2017-11-21T13:28:02.994Z,11.00
2017-11-21T13:30:30.475Z,11.00
2017-11-21T13:32:57.961Z,10.90
2017-11-21T13:35:26.247Z,10.90
2017-11-21T13:37:54.522Z,11.00
2017-11-21T13:40:23.380Z,11.00
2017-11-21T13:42:50.972Z,11.00
2017-11-21T13:45:18.554Z,11.00
2017-11-21T13:47:46.022Z,11.00
2017-11-21T13:50:13.521Z,10.90
2017-11-21T13:52:42.543Z,10.90
2017-11-21T13:55:10.062Z,11.00
2017-11-21T13:57:37.541Z,10.90
2017-11-21T14:00:05.783Z,10.90
2017-11-21T14:02:49.671Z,10.90
2017-11-21T14:05:21.651Z,10.80
2017-11-21T14:07:49.120Z,10.90
2017-11-21T14:10:16.590Z,10.80
2017-11-21T14:12:44.092Z,10.80
2017-11-21T14:15:12.936Z,10.80
2017-11-21T14:17:40.421Z,10.80
2017-11-21T14:20:07.968Z,10.80
2017-11-21T14:22:35.450Z,10.80
2017-11-21T14:25:03.822Z,10.80
2017-11-21T14:27:31.702Z,10.80
2017-11-21T14:29:59.243Z,10.70
2017-11-21T14:32:26.730Z,10.70
2017-11-21T14:34:55.078Z,10.60
2017-11-21T14:37:22.557Z,10.60
2017-11-21T14:39:50.800Z,10.60
2017-11-21T14:42:19.062Z,10.60
2017-11-21T14:44:46.659Z,10.60
2017-11-21T14:47:15.001Z,10.60
2017-11-21T14:49:42.482Z,10.60
2017-11-21T14:52:10.040Z,10.60
2017-11-21T14:54:38.352Z,10.70
2017-11-21T14:57:05.899Z,10.60
2017-11-21T14:59:34.240Z,10.70
2017-11-21T15:02:01.718Z,10.70
2017-11-21T15:04:29.243Z,10.70
2017-11-21T15:06:56.758Z,10.70
2017-11-21T15:09:24.329Z,10.80
2017-11-21T15:11:51.821Z,10.80
2017-11-21T15:14:19.307Z,10.80
2017-11-21T15:16:47.688Z,10.80
2017-11-21T15:19:15.214Z,10.80
2017-11-21T15:21:44.253Z,10.90
2017-11-21T15:24:11.972Z,10.80
2017-11-21T15:26:39.454Z,10.90
2017-11-21T15:29:06.982Z,10.90
2017-11-21T15:31:34.565Z,10.90
2017-11-21T15:34:02.046Z,10.80
2017-11-21T15:36:32.159Z,10.90
2017-11-21T15:39:00.534Z,10.90
2017-11-21T15:41:29.007Z,10.90
2017-11-21T15:43:57.476Z,10.90
2017-11-21T15:46:25.140Z,10.80
2017-11-21T15:48:52.629Z,10.90
2017-11-21T15:51:20.941Z,10.80
2017-11-21T15:53:48.428Z,10.80
2017-11-21T15:56:15.925Z,10.80
2017-11-21T15:58:44.168Z,10.80
2017-11-21T16:01:11.867Z,10.80
2017-11-21T16:03:39.348Z,10.80
2017-11-21T16:06:06.811Z,10.70
2017-11-21T16:08:34.370Z,10.70
2017-11-21T16:11:01.840Z,10.70
2017-11-21T16:13:29.420Z,10.60
2017-11-21T16:15:56.901Z,10.60
2017-11-21T16:18:25.159Z,10.60
2017-11-21T16:20:52.647Z,10.50
2017-11-21T16:23:20.116Z,10.60
2017-11-21T16:25:47.694Z,10.60
2017-11-21T16:28:15.457Z,10.60
2017-11-21T16:30:42.946Z,10.60
2017-11-21T16:33:10.419Z,10.60
2017-11-21T16:35:38.672Z,10.50
2017-11-21T16:38:10.443Z,10.50
2017-11-21T16:40:38.474Z,10.50
2017-11-21T16:43:05.953Z,10.60
2017-11-21T16:45:33.491Z,10.50
2017-11-21T16:48:01.054Z,10.50
2017-11-21T16:50:28.526Z,10.50
2017-11-21T16:52:56.360Z,10.50
2017-11-21T16:55:23.840Z,10.50
2017-11-21T16:57:51.372Z,10.60
2017-11-21T17:00:18.876Z,10.50
2017-11-21T17:02:46.345Z,10.50
2017-11-21T17:05:14.577Z,10.50
2017-11-21T17:07:42.071Z,10.50
2017-11-21T17:10:09.538Z,10.50
2017-11-21T17:12:37.785Z,10.50
2017-11-21T17:15:05.255Z,10.50
2017-11-21T17:17:32.996Z,10.50
2017-11-21T17:20:00.489Z,10.50
2017-11-21T17:22:28.886Z,10.50
2017-11-21T17:24:56.614Z,10.50
2017-11-21T17:27:24.111Z,10.40
2017-11-21T17:29:51.604Z,10.40
2017-11-21T17:32:19.083Z,10.40
2017-11-21T17:34:46.571Z,10.40
2017-11-21T17:37:14.820Z,10.40
2017-11-21T17:39:42.294Z,10.40
2017-11-21T17:42:10.545Z,10.40
2017-11-21T17:44:38.106Z,10.30
2017-11-21T17:47:05.685Z,10.40
2017-11-21T17:49:33.959Z,10.30
2017-11-21T17:52:01.439Z,10.30
2017-11-21T17:54:29.078Z,10.30
2017-11-21T17:56:57.354Z,10.30
2017-11-21T17:59:25.627Z,10.30
2017-11-21T18:01:53.899Z,10.30
2017-11-21T18:04:21.363Z,10.30
2017-11-21T18:06:49.620Z,10.30
2017-11-21T18:09:17.100Z,10.30
2017-11-21T18:11:44.605Z,10.30
2017-11-21T18:14:12.081Z,10.20
2017-11-21T18:16:40.337Z,10.20
2017-11-21T18:19:07.926Z,10.20
2017-11-21T18:21:35.445Z,10.20
2017-11-21T18:24:02.903Z,10.20
2017-11-21T18:26:30.384Z,10.20
2017-11-21T18:28:57.867Z,10.20
2017-11-21T18:31:25.502Z,10.20
2017-11-21T18:33:53.190Z,10.20
2017-11-21T18:36:20.661Z,10.20
2017-11-21T18:38:48.930Z,10.20
2017-11-21T18:41:17.301Z,10.20
2017-11-21T18:43:46.497Z,10.20
2017-11-21T18:46:14.749Z,10.20
2017-11-21T18:48:42.248Z,10.20
2017-11-21T18:51:10.545Z,10.20
2017-11-21T18:53:38.249Z,10.20
2017-11-21T18:56:05.717Z,10.30
2017-11-21T18:58:33.604Z,10.20
2017-11-21T19:01:02.276Z,10.20
2017-11-21T19:03:29.833Z,10.20
2017-11-21T19:05:58.894Z,10.20
2017-11-21T19:08:26.381Z,10.20
2017-11-21T19:10:53.873Z,10.20
2017-11-21T19:13:21.501Z,10.20
2017-11-21T19:15:49.123Z,10.20
2017-11-21T19:18:16.618Z,10.20
2017-11-21T19:20:44.179Z,10.30
2017-11-21T19:23:11.843Z,10.20
2017-11-21T19:25:39.326Z,10.20
2017-11-21T19:28:06.950Z,10.20
2017-11-21T19:30:34.675Z,10.20
2017-11-21T19:33:02.303Z,10.20
2017-11-21T19:35:29.894Z,10.20
2017-11-21T19:37:57.380Z,10.20
2017-11-21T19:40:24.920Z,10.20
2017-11-21T19:42:52.739Z,10.20
2017-11-21T19:45:21.200Z,10.20
2017-11-21T19:47:48.682Z,10.20
2017-11-21T19:50:16.309Z,10.20
2017-11-21T19:52:43.794Z,10.20
2017-11-21T19:55:12.215Z,10.20
2017-11-21T19:57:39.715Z,10.20
2017-11-21T20:00:07.237Z,10.20
2017-11-21T20:02:34.807Z,10.20
2017-11-21T20:05:02.419Z,10.20
2017-11-21T20:07:30.786Z,10.20
2017-11-21T20:09:59.123Z,10.20
2017-11-21T20:12:26.695Z,10.10
2017-11-21T20:14:54.373Z,10.20
2017-11-21T20:17:22.743Z,10.20
2017-11-21T20:19:50.311Z,10.20
2017-11-21T20:22:18.017Z,10.20
2017-11-21T20:24:45.635Z,10.20
2017-11-21T20:27:13.901Z,10.20
2017-11-21T20:29:41.418Z,10.20
2017-11-21T20:32:09.062Z,10.20
2017-11-21T20:34:36.576Z,10.20
2017-11-21T20:37:04.063Z,10.20
2017-11-21T20:39:31.594Z,10.20
2017-11-21T20:41:59.078Z,10.20
2017-11-21T20:44:26.626Z,10.20
2017-11-21T20:46:54.868Z,10.20
2017-11-21T20:49:22.540Z,10.20
2017-11-21T20:51:50.018Z,10.20
2017-11-21T20:54:18.319Z,10.20
2017-11-21T20:56:45.904Z,10.20
2017-11-21T20:59:13.409Z,10.20
2017-11-21T21:01:41.683Z,10.20
2017-11-21T21:04:09.343Z,10.20
2017-11-21T21:06:36.862Z,10.20
2017-11-21T21:09:04.356Z,10.20
2017-11-21T21:11:31.840Z,10.20
2017-11-21T21:13:59.337Z,10.20
2017-11-21T21:16:26.844Z,10.20
2017-11-21T21:18:55.095Z,10.30
2017-11-21T21:21:22.721Z,10.30
2017-11-21T21:23:50.188Z,10.20
2017-11-21T21:26:17.860Z,10.20
2017-11-21T21:28:45.345Z,10.20
2017-11-21T21:31:13.632Z,10.20
2017-11-21T21:33:41.989Z,10.20
2017-11-21T21:36:09.617Z,10.20
2017-11-21T21:38:37.089Z,10.20
2017-11-21T21:41:04.586Z,10.20
2017-11-21T21:43:32.862Z,10.20
2017-11-21T21:46:01.101Z,10.20
2017-11-21T21:48:28.585Z,10.20
2017-11-21T21:50:56.883Z,10.20
2017-11-21T21:53:24.362Z,10.20
2017-11-21T21:55:52.020Z,10.20
2017-11-21T21:58:19.542Z,10.20
2017-11-21T22:00:47.823Z,10.20
2017-11-21T22:03:16.093Z,10.20
2017-11-21T22:05:44.388Z,10.20
2017-11-21T22:08:12.023Z,10.20
2017-11-21T22:10:40.458Z,10.20
2017-11-21T22:13:08.790Z,10.20
2017-11-21T22:15:37.060Z,10.20
2017-11-21T22:18:05.303Z,10.20
2017-11-21T22:20:32.812Z,10.20
2017-11-21T22:23:00.357Z,10.20
2017-11-21T22:25:28.606Z,10.20
2017-11-21T22:27:56.251Z,10.20
2017-11-21T22:30:23.912Z,10.20
2017-11-21T22:32:51.401Z,10.20
2017-11-21T22:35:18.891Z,10.20
2017-11-21T22:37:46.381Z,10.20
2017-11-21T22:40:13.961Z,10.20
2017-11-21T22:42:42.359Z,10.20
2017-11-21T22:45:10.705Z,10.30
2017-11-21T22:47:38.239Z,10.30
2017-11-21T22:50:05.717Z,10.30
2017-11-21T22:52:33.182Z,10.30
2017-11-21T22:55:00.649Z,10.30
2017-11-21T22:57:28.890Z,10.30
2017-11-21T22:59:56.343Z,10.30
2017-11-21T23:02:23.835Z,10.30
2017-11-21T23:04:52.990Z,10.30
2017-11-21T23:07:20.473Z,10.30
2017-11-21T23:09:48.206Z,10.40
2017-11-21T23:12:15.689Z,10.40
2017-11-21T23:14:43.154Z,10.40
2017-11-21T23:17:10.629Z,10.40
2017-11-21T23:19:38.957Z,10.40
2017-11-21T23:22:06.427Z,10.40
2017-11-21T23:24:33.907Z,10.40
2017-11-21T23:27:01.387Z,10.40
2017-11-21T23:29:29.731Z,10.40
2017-11-21T23:31:57.242Z,10.40
2017-11-21T23:34:24.718Z,10.40
2017-11-21T23:36:52.205Z,10.40
2017-11-21T23:39:19.655Z,10.40
2017-11-21T23:41:47.231Z,10.40
2017-11-21T23:44:14.761Z,10.40
2017-11-21T23:46:42.225Z,10.40
2017-11-21T23:49:09.701Z,10.40
2017-11-21T23:51:37.184Z,10.40
2017-11-21T23:54:05.462Z,10.50
2017-11-21T23:56:33.694Z,10.50
2017-11-21T23:59:01.154Z,10.40
